Time;durP1;ratioP1;P1;durP2;ratioP2;P2;SDS_P1;SDS_P2;PMS_P1;PMS_P2;Temp;Humidity;BMP_temperature;BMP_pressure;BME280_temperature;BME280_humidity;BME280_pressure;Samples;Min_cycle;Max_cycle;Signal;HPM_P1;HPM_P2
2023/07/08 00:00:38;;;;;;;5.78;3.33;;;23.00;55.20;;;;;;4988859;28;20436;-64
2023/07/08 00:03:03;;;;;;;5.43;3.15;;;23.00;55.30;;;;;;5000229;28;20087;-65
2023/07/08 00:05:29;;;;;;;4.90;3.10;;;23.00;55.30;;;;;;4987211;28;20084;-64
2023/07/08 00:07:54;;;;;;;3.80;3.00;;;23.00;55.30;;;;;;5001266;28;20030;-65
2023/07/08 00:10:23;;;;;;;4.40;3.25;;;23.00;55.20;;;;;;5004147;28;20032;-64
2023/07/08 00:12:51;;;;;;;4.38;3.00;;;23.00;55.20;;;;;;5000529;28;20033;-64
2023/07/08 00:15:21;;;;;;;3.88;3.47;;;23.00;55.20;;;;;;4996422;28;20030;-65
2023/07/08 00:17:47;;;;;;;4.72;3.35;;;23.00;55.20;;;;;;4990901;28;20413;-64
2023/07/08 00:20:28;;;;;;;4.70;3.28;;;23.00;55.20;;;;;;4998484;28;20065;-64
2023/07/08 00:22:53;;;;;;;4.15;3.25;;;23.00;55.20;;;;;;4994439;28;20045;-64
2023/07/08 00:25:19;;;;;;;5.18;3.58;;;23.00;55.20;;;;;;5003601;28;20026;-64
2023/07/08 00:27:46;;;;;;;3.50;3.20;;;23.00;55.80;;;;;;4992852;28;20108;-64
2023/07/08 00:30:23;;;;;;;3.72;3.40;;;23.00;55.20;;;;;;5030019;28;20026;-64
2023/07/08 00:32:53;;;;;;;4.50;3.15;;;23.00;55.10;;;;;;5003152;28;20067;-64
2023/07/08 00:35:19;;;;;;;3.63;3.10;;;23.00;55.20;;;;;;4993064;28;20042;-64
2023/07/08 00:37:46;;;;;;;4.38;3.65;;;23.00;55.10;;;;;;5002795;28;20034;-63
2023/07/08 00:40:18;;;;;;;3.42;3.13;;;23.00;55.10;;;;;;5004716;28;20038;-65
2023/07/08 00:42:44;;;;;;;3.45;3.15;;;23.00;55.70;;;;;;4998961;28;20033;-63
2023/07/08 00:45:27;;;;;;;3.72;3.28;;;23.00;55.10;;;;;;5001276;28;20030;-65
2023/07/08 00:47:55;;;;;;;5.05;3.53;;;23.00;55.10;;;;;;5000245;28;20084;-64
2023/07/08 00:50:20;;;;;;;3.00;2.70;;;22.90;55.00;;;;;;5004823;28;20113;-64
2023/07/08 00:52:46;;;;;;;4.95;3.65;;;23.00;55.00;;;;;;5005242;28;20122;-64
2023/07/08 00:55:12;;;;;;;4.35;3.25;;;23.00;55.00;;;;;;5002112;28;20054;-65
2023/07/08 00:57:41;;;;;;;4.75;2.70;;;23.00;55.00;;;;;;4995122;28;20030;-64
2023/07/08 01:00:16;;;;;;;4.78;3.25;;;22.90;54.90;;;;;;4999589;28;20034;-65
2023/07/08 01:02:48;;;;;;;5.28;3.00;;;22.90;54.90;;;;;;4990429;28;20038;-64
2023/07/08 01:05:22;;;;;;;5.65;3.28;;;22.90;54.90;;;;;;4986938;28;20527;-65
2023/07/08 01:07:53;;;;;;;5.00;2.88;;;22.90;54.80;;;;;;4998255;28;20405;-64
2023/07/08 01:10:26;;;;;;;3.47;3.15;;;22.90;54.80;;;;;;4991366;28;20026;-65
2023/07/08 01:12:56;;;;;;;5.18;3.80;;;22.90;54.80;;;;;;4996866;28;20038;-64
2023/07/08 01:15:29;;;;;;;3.95;3.13;;;22.90;54.70;;;;;;5003567;28;20507;-65
2023/07/08 01:17:55;;;;;;;5.88;3.20;;;22.90;54.80;;;;;;4989361;28;20039;-64
2023/07/08 01:20:20;;;;;;;4.65;2.90;;;22.90;54.70;;;;;;5002134;28;20029;-65
2023/07/08 01:22:46;;;;;;;3.00;2.63;;;22.90;54.80;;;;;;5001211;28;20040;-64
2023/07/08 01:25:13;;;;;;;4.57;3.25;;;22.90;54.80;;;;;;4987679;28;20058;-64
2023/07/08 01:27:43;;;;;;;4.25;3.85;;;22.90;54.90;;;;;;5000145;28;20038;-64
2023/07/08 01:30:10;;;;;;;3.38;3.08;;;22.90;54.90;;;;;;5003048;28;20083;-65
2023/07/08 01:32:45;;;;;;;3.83;3.33;;;22.90;54.90;;;;;;5000346;28;20034;-64
2023/07/08 01:35:12;;;;;;;3.55;2.70;;;22.90;54.90;;;;;;4996803;28;20100;-65
2023/07/08 01:37:41;;;;;;;5.35;3.20;;;22.90;54.80;;;;;;5000571;28;20034;-63
2023/07/08 01:40:18;;;;;;;3.47;2.83;;;22.90;54.90;;;;;;5007192;28;20031;-64
2023/07/08 01:42:44;;;;;;;4.60;3.20;;;22.90;54.90;;;;;;5001982;28;20072;-63
2023/07/08 01:45:15;;;;;;;4.40;3.10;;;22.90;55.50;;;;;;5004112;28;20058;-65
2023/07/08 01:47:45;;;;;;;3.10;2.80;;;22.90;55.00;;;;;;5001455;28;20035;-64
2023/07/08 01:50:11;;;;;;;4.55;3.30;;;22.90;54.90;;;;;;5002643;28;20030;-63
2023/07/08 01:52:37;;;;;;;3.70;3.13;;;22.90;54.90;;;;;;5001098;28;20026;-64
2023/07/08 01:55:03;;;;;;;3.38;3.08;;;22.90;55.00;;;;;;5003450;28;20572;-65
2023/07/08 01:57:29;;;;;;;4.78;3.22;;;22.90;55.00;;;;;;5003692;28;20614;-64
2023/07/08 01:59:54;;;;;;;3.10;2.80;;;22.90;55.00;;;;;;5008707;28;20034;-64
2023/07/08 02:02:20;;;;;;;3.50;3.15;;;22.90;55.10;;;;;;4997428;28;20043;-64
2023/07/08 02:04:45;;;;;;;3.80;3.40;;;22.90;55.00;;;;;;5002652;28;20049;-64
2023/07/08 02:07:11;;;;;;;3.53;2.83;;;22.90;55.00;;;;;;5011274;28;20097;-65
2023/07/08 02:09:36;;;;;;;4.40;2.75;;;22.90;55.10;;;;;;5010020;28;20400;-66
2023/07/08 02:12:02;;;;;;;7.18;3.55;;;22.90;54.90;;;;;;5002673;28;20371;-64
2023/07/08 02:14:27;;;;;;;4.40;3.22;;;22.80;54.60;;;;;;5004720;28;20030;-63
2023/07/08 02:16:53;;;;;;;6.43;4.05;;;22.80;54.30;;;;;;5007459;28;20028;-65
2023/07/08 02:19:19;;;;;;;6.93;3.78;;;22.70;54.20;;;;;;5006468;28;20018;-66
2023/07/08 02:21:45;;;;;;;9.35;3.50;;;22.80;54.00;;;;;;5007806;28;20957;-67
2023/07/08 02:24:10;;;;;;;7.97;3.85;;;22.70;53.80;;;;;;5006697;28;20084;-67
2023/07/08 02:26:36;;;;;;;6.88;3.30;;;22.80;54.40;;;;;;5005459;28;20092;-66
2023/07/08 02:29:02;;;;;;;7.25;3.97;;;22.80;53.80;;;;;;4999768;28;20033;-68
2023/07/08 02:31:28;;;;;;;11.68;3.78;;;22.70;53.60;;;;;;5005395;28;20112;-65
2023/07/08 02:33:54;;;;;;;8.43;3.63;;;22.80;53.70;;;;;;5000232;28;20117;-66
2023/07/08 02:36:19;;;;;;;4.80;3.22;;;22.70;53.50;;;;;;5003325;28;20038;-65
2023/07/08 02:38:45;;;;;;;5.10;3.45;;;22.70;53.50;;;;;;4995259;28;20026;-64
2023/07/08 02:41:11;;;;;;;8.07;3.83;;;22.70;53.60;;;;;;5001012;28;20539;-65
2023/07/08 02:43:40;;;;;;;9.30;4.22;;;22.80;53.90;;;;;;4996903;28;20042;-66
2023/07/08 02:46:05;;;;;;;7.82;4.07;;;22.80;54.30;;;;;;4999904;28;20922;-65
2023/07/08 02:48:31;;;;;;;7.07;4.60;;;22.80;54.60;;;;;;5004286;28;20030;-65
2023/07/08 02:51:04;;;;;;;7.90;4.07;;;22.90;54.80;;;;;;5001761;28;20041;-63
2023/07/08 02:53:30;;;;;;;5.00;3.90;;;22.90;55.00;;;;;;4996254;28;20092;-64
2023/07/08 02:55:55;;;;;;;4.80;3.45;;;22.90;54.80;;;;;;4994854;28;20493;-63
2023/07/08 02:58:21;;;;;;;6.07;3.90;;;22.90;54.60;;;;;;4998150;28;20216;-65
2023/07/08 03:00:52;;;;;;;5.38;3.70;;;22.80;54.40;;;;;;4999493;28;20056;-63
2023/07/08 03:03:17;;;;;;;4.93;3.53;;;22.90;54.10;;;;;;5004970;28;20026;-64
2023/07/08 03:05:43;;;;;;;8.50;4.10;;;22.80;54.10;;;;;;5004736;28;20026;-63
2023/07/08 03:08:08;;;;;;;5.57;3.35;;;22.80;54.30;;;;;;4994328;28;20039;-66
2023/07/08 03:10:34;;;;;;;6.13;3.10;;;22.80;54.50;;;;;;4997208;28;20497;-64
2023/07/08 03:12:59;;;;;;;4.30;3.10;;;22.80;54.60;;;;;;4998938;28;20068;-65
2023/07/08 03:15:25;;;;;;;5.55;3.53;;;22.80;54.60;;;;;;5008004;28;20794;-65
2023/07/08 03:17:50;;;;;;;5.78;3.40;;;22.80;54.40;;;;;;5001558;28;20029;-65
2023/07/08 03:20:16;;;;;;;6.70;3.42;;;22.70;54.40;;;;;;5001346;28;20472;-65
2023/07/08 03:22:42;;;;;;;6.53;3.15;;;22.70;54.60;;;;;;5000028;28;20049;-65
2023/07/08 03:25:09;;;;;;;6.43;3.42;;;22.70;54.70;;;;;;4996178;28;20034;-65
2023/07/08 03:27:34;;;;;;;4.90;3.63;;;22.70;54.60;;;;;;4997529;28;20034;-65
2023/07/08 03:30:00;;;;;;;4.25;2.88;;;22.70;54.50;;;;;;4994050;28;21573;-64
2023/07/08 03:32:25;;;;;;;4.05;2.85;;;22.70;54.30;;;;;;5001786;28;20493;-67
2023/07/08 03:34:51;;;;;;;4.05;3.50;;;22.70;54.30;;;;;;4998376;28;20076;-66
2023/07/08 03:37:16;;;;;;;10.13;4.43;;;22.70;54.00;;;;;;4996711;28;20026;-67
2023/07/08 03:39:42;;;;;;;5.93;4.15;;;22.60;53.80;;;;;;4994989;28;20022;-66
2023/07/08 03:42:07;;;;;;;5.43;3.63;;;22.60;53.60;;;;;;5003229;28;20037;-65
2023/07/08 03:44:33;;;;;;;6.47;3.85;;;22.60;51.90;;;;;;4994841;28;20089;-65
2023/07/08 03:46:58;;;;;;;4.90;3.80;;;22.60;51.40;;;;;;4997867;28;20038;-63
2023/07/08 03:49:24;;;;;;;4.45;3.50;;;22.60;51.40;;;;;;4997746;28;20034;-64
2023/07/08 03:51:53;;;;;;;7.90;3.65;;;22.60;50.90;;;;;;4999937;28;20062;-64
2023/07/08 03:54:19;;;;;;;5.47;3.67;;;22.50;50.90;;;;;;4994674;28;20030;-65
2023/07/08 03:56:45;;;;;;;4.97;3.10;;;22.50;50.80;;;;;;5001982;28;20117;-65
2023/07/08 03:59:10;;;;;;;4.80;3.88;;;22.50;50.70;;;;;;4993070;28;20137;-65
2023/07/08 04:01:40;;;;;;;8.18;3.55;;;22.50;50.60;;;;;;4998428;28;20030;-66
2023/07/08 04:04:06;;;;;;;9.88;3.72;;;22.50;51.00;;;;;;5004925;28;20088;-65
2023/07/08 04:06:34;;;;;;;4.18;3.58;;;22.50;50.90;;;;;;4999668;28;20029;-64
2023/07/08 04:08:59;;;;;;;4.00;2.90;;;22.50;50.70;;;;;;5000961;28;20026;-64
2023/07/08 04:11:25;;;;;;;8.95;3.55;;;22.50;50.50;;;;;;4996964;28;20052;-66
2023/07/08 04:13:50;;;;;;;4.97;2.92;;;22.50;50.70;;;;;;5001951;28;20126;-65
2023/07/08 04:16:28;;;;;;;4.07;3.58;;;22.50;50.70;;;;;;5001819;28;20036;-65
2023/07/08 04:18:55;;;;;;;5.63;3.38;;;22.50;50.20;;;;;;4994988;28;20085;-65
2023/07/08 04:21:21;;;;;;;4.45;3.53;;;22.50;49.80;;;;;;4993622;28;20030;-65
2023/07/08 04:23:47;;;;;;;4.45;3.28;;;22.50;50.10;;;;;;4996459;28;20064;-63
2023/07/08 04:26:12;;;;;;;4.65;3.42;;;22.50;49.80;;;;;;5000639;28;20058;-65
2023/07/08 04:28:38;;;;;;;6.75;3.45;;;22.50;49.90;;;;;;4999496;28;20080;-66
2023/07/08 04:31:03;;;;;;;4.05;3.28;;;22.50;50.30;;;;;;4999423;28;20036;-65
2023/07/08 04:33:30;;;;;;;3.60;3.00;;;22.60;50.20;;;;;;4991692;28;20531;-66
2023/07/08 04:35:55;;;;;;;4.88;3.83;;;22.50;50.20;;;;;;5003903;28;20069;-65
2023/07/08 04:38:25;;;;;;;4.50;3.47;;;22.50;50.40;;;;;;4998097;28;20077;-66
2023/07/08 04:40:52;;;;;;;6.53;4.10;;;22.50;50.50;;;;;;4998410;28;20432;-66
2023/07/08 04:43:19;;;;;;;4.72;3.40;;;22.50;50.60;;;;;;5001956;28;20032;-66
2023/07/08 04:45:50;;;;;;;3.50;2.90;;;22.60;50.80;;;;;;5005046;28;20036;-67
2023/07/08 04:48:18;;;;;;;4.70;3.50;;;22.60;50.70;;;;;;4996454;28;20496;-66
2023/07/08 04:50:45;;;;;;;3.60;2.97;;;22.70;50.90;;;;;;4994010;28;20038;-66
2023/07/08 04:53:12;;;;;;;4.47;3.55;;;22.70;50.90;;;;;;5001020;28;20041;-64
2023/07/08 04:56:03;;;;;;;5.18;3.30;;;22.70;51.00;;;;;;5005935;28;20034;-64
2023/07/08 04:58:28;;;;;;;4.90;3.33;;;22.70;51.10;;;;;;4997660;28;20045;-64
2023/07/08 05:00:54;;;;;;;4.28;3.17;;;22.70;51.20;;;;;;4997074;28;20027;-66
2023/07/08 05:03:19;;;;;;;3.20;2.90;;;22.70;51.30;;;;;;5005238;28;20100;-65
2023/07/08 05:05:45;;;;;;;4.78;3.38;;;22.80;51.40;;;;;;5004427;28;20033;-65
2023/07/08 05:08:12;;;;;;;5.20;3.30;;;22.70;51.40;;;;;;4999273;28;20033;-65
2023/07/08 05:10:38;;;;;;;3.78;3.38;;;22.80;51.60;;;;;;5001955;28;20030;-64
2023/07/08 05:13:04;;;;;;;4.18;2.90;;;22.80;51.60;;;;;;4989484;28;20061;-64
2023/07/08 05:15:30;;;;;;;5.05;3.00;;;22.80;51.70;;;;;;4993672;28;20029;-63
2023/07/08 05:17:55;;;;;;;4.43;2.85;;;22.80;51.70;;;;;;4997296;28;20088;-64
2023/07/08 05:20:21;;;;;;;4.25;2.95;;;22.80;51.70;;;;;;5002183;28;20318;-65
2023/07/08 05:22:47;;;;;;;3.83;3.30;;;22.80;51.80;;;;;;5001728;28;20030;-64
2023/07/08 05:25:13;;;;;;;5.60;2.88;;;22.80;51.90;;;;;;5005596;28;20033;-66
2023/07/08 05:27:39;;;;;;;4.57;3.17;;;22.80;51.90;;;;;;4999160;28;20026;-65
2023/07/08 05:30:06;;;;;;;5.78;3.58;;;22.90;51.90;;;;;;5006465;28;20024;-64
2023/07/08 05:32:32;;;;;;;6.10;3.40;;;22.90;51.90;;;;;;5002588;28;20030;-64
2023/07/08 05:34:57;;;;;;;4.03;3.03;;;22.90;51.90;;;;;;5002553;28;20052;-61
2023/07/08 05:37:25;;;;;;;4.78;3.35;;;22.90;51.90;;;;;;5002239;28;20273;-61
2023/07/08 05:39:54;;;;;;;3.40;2.80;;;22.90;52.00;;;;;;5001873;28;20034;-64
2023/07/08 05:42:21;;;;;;;8.18;4.15;;;22.90;51.90;;;;;;4997089;28;20895;-65
2023/07/08 05:44:47;;;;;;;5.03;3.70;;;22.90;51.80;;;;;;4999426;28;20030;-64
2023/07/08 05:47:13;;;;;;;3.67;3.13;;;22.90;51.60;;;;;;5004741;28;20058;-65
2023/07/08 05:49:39;;;;;;;4.63;3.60;;;22.90;51.80;;;;;;5003714;28;20033;-64
2023/07/08 05:52:10;;;;;;;6.05;3.67;;;22.90;51.80;;;;;;4997086;28;20030;-66
2023/07/08 05:54:36;;;;;;;3.90;3.50;;;23.00;51.90;;;;;;4999082;28;20121;-66
2023/07/08 05:57:02;;;;;;;4.45;3.25;;;23.00;52.00;;;;;;5004363;28;20046;-66
2023/07/08 05:59:27;;;;;;;4.57;3.33;;;23.00;51.90;;;;;;4995699;28;20076;-65
2023/07/08 06:01:53;;;;;;;4.85;3.72;;;23.00;52.00;;;;;;5003691;28;20026;-65
2023/07/08 06:04:18;;;;;;;5.50;4.00;;;23.00;51.90;;;;;;5000642;28;20040;-66
2023/07/08 06:06:44;;;;;;;5.28;3.25;;;23.00;52.00;;;;;;5002107;28;20022;-66
2023/07/08 06:09:09;;;;;;;4.00;3.30;;;23.00;52.00;;;;;;4999870;28;20031;-66
2023/07/08 06:11:35;;;;;;;4.45;3.25;;;23.00;52.00;;;;;;4997665;28;20449;-66
2023/07/08 06:14:00;;;;;;;3.63;3.20;;;23.10;52.20;;;;;;5001720;28;20034;-66
2023/07/08 06:16:28;;;;;;;4.30;3.88;;;23.10;52.30;;;;;;5010462;28;20030;-66
2023/07/08 06:18:55;;;;;;;4.25;3.05;;;23.00;52.20;;;;;;5000399;28;20030;-66
2023/07/08 06:21:21;;;;;;;4.07;3.53;;;23.00;52.20;;;;;;4999984;28;20450;-66
2023/07/08 06:23:46;;;;;;;3.75;3.20;;;23.00;52.30;;;;;;4998957;28;21455;-62
2023/07/08 06:26:12;;;;;;;4.15;3.33;;;23.00;52.60;;;;;;5007696;28;20488;-63
2023/07/08 06:28:37;;;;;;;3.67;3.30;;;23.00;52.60;;;;;;5004975;28;20488;-66
2023/07/08 06:31:02;;;;;;;4.57;3.63;;;23.00;52.60;;;;;;5005974;28;20065;-66
2023/07/08 06:33:28;;;;;;;3.42;3.10;;;23.00;52.50;;;;;;4994162;28;20038;-65
2023/07/08 06:35:53;;;;;;;3.53;2.92;;;23.00;52.50;;;;;;5002497;28;20449;-66
2023/07/08 06:38:19;;;;;;;4.18;3.63;;;23.00;52.60;;;;;;5000551;28;20286;-66
2023/07/08 06:40:44;;;;;;;5.20;3.10;;;23.00;52.40;;;;;;5003081;28;20038;-66
2023/07/08 06:43:10;;;;;;;5.97;3.35;;;23.00;52.40;;;;;;5001897;28;20038;-66
2023/07/08 06:45:35;;;;;;;4.20;3.40;;;23.00;52.40;;;;;;5002216;28;20428;-65
2023/07/08 06:48:01;;;;;;;3.92;3.40;;;23.00;52.50;;;;;;4996446;28;20432;-65
2023/07/08 06:50:26;;;;;;;3.35;2.80;;;23.00;52.60;;;;;;5007677;28;20085;-66
2023/07/08 06:52:52;;;;;;;5.57;3.78;;;23.00;52.70;;;;;;4994218;28;20117;-66
2023/07/08 06:55:18;;;;;;;5.28;3.38;;;23.10;52.80;;;;;;5001907;28;20270;-66
2023/07/08 06:57:43;;;;;;;5.18;4.15;;;23.00;52.70;;;;;;4993579;28;20033;-65
2023/07/08 07:00:10;;;;;;;3.72;3.30;;;23.10;52.80;;;;;;5000114;28;20666;-65
2023/07/08 07:02:36;;;;;;;4.70;3.97;;;23.10;52.80;;;;;;4999070;28;20397;-65
2023/07/08 07:05:03;;;;;;;3.80;3.40;;;23.00;52.80;;;;;;4993259;28;20026;-66
2023/07/08 07:07:29;;;;;;;4.13;3.40;;;23.00;52.90;;;;;;4995497;28;20026;-65
2023/07/08 07:09:55;;;;;;;3.47;2.90;;;23.10;53.00;;;;;;4993798;28;20521;-66
2023/07/08 07:12:21;;;;;;;5.95;4.10;;;23.00;53.00;;;;;;4995408;28;20401;-66
2023/07/08 07:14:46;;;;;;;5.35;3.42;;;23.10;53.00;;;;;;5001907;28;20098;-66
2023/07/08 07:17:12;;;;;;;4.40;3.67;;;23.00;53.00;;;;;;4997630;28;20524;-65
2023/07/08 07:19:37;;;;;;;4.55;3.65;;;23.00;53.10;;;;;;4999451;28;20026;-65
2023/07/08 07:22:03;;;;;;;7.50;4.10;;;23.10;53.20;;;;;;4994757;28;20489;-66
2023/07/08 07:24:29;;;;;;;5.65;3.90;;;23.10;53.30;;;;;;4995856;28;20133;-66
2023/07/08 07:26:54;;;;;;;4.32;3.53;;;23.00;53.20;;;;;;4994830;28;20064;-66
2023/07/08 07:29:23;;;;;;;4.00;3.40;;;23.10;53.30;;;;;;5003437;28;20087;-66
2023/07/08 07:31:48;;;;;;;6.28;4.38;;;23.10;53.50;;;;;;4999719;28;20547;-63
2023/07/08 07:34:14;;;;;;;4.43;3.67;;;23.10;53.50;;;;;;4998018;28;20042;-66
2023/07/08 07:36:40;;;;;;;3.80;3.25;;;23.10;53.60;;;;;;4993223;28;20084;-64
2023/07/08 07:39:06;;;;;;;4.45;3.60;;;23.10;53.60;;;;;;4996421;28;20076;-65
2023/07/08 07:41:31;;;;;;;6.00;4.15;;;23.10;53.70;;;;;;4994764;28;20117;-66
2023/07/08 07:43:57;;;;;;;4.05;3.60;;;23.10;53.80;;;;;;4990565;28;20340;-66
2023/07/08 07:46:22;;;;;;;4.07;3.60;;;23.10;53.80;;;;;;4998022;28;20030;-66
2023/07/08 07:48:48;;;;;;;5.50;4.03;;;23.10;53.90;;;;;;4998224;28;20207;-65
2023/07/08 07:51:14;;;;;;;6.10;3.65;;;23.10;53.90;;;;;;4998958;28;20109;-65
2023/07/08 07:53:39;;;;;;;4.70;3.80;;;23.10;54.00;;;;;;5004864;28;20088;-65
2023/07/08 07:56:05;;;;;;;6.68;4.30;;;23.10;54.00;;;;;;5006109;28;20080;-66
2023/07/08 07:58:31;;;;;;;8.75;4.35;;;23.10;54.10;;;;;;5003680;28;20065;-66
2023/07/08 08:00:57;;;;;;;4.55;4.03;;;23.10;54.30;;;;;;5005412;28;20057;-65
2023/07/08 08:03:23;;;;;;;5.25;3.83;;;23.10;54.40;;;;;;5005841;28;20064;-64
2023/07/08 08:05:48;;;;;;;6.25;4.28;;;23.10;54.40;;;;;;4998166;28;20037;-66
2023/07/08 08:08:14;;;;;;;4.85;4.20;;;23.20;54.60;;;;;;4998609;28;20038;-66
2023/07/08 08:10:40;;;;;;;4.20;3.80;;;23.20;54.80;;;;;;5004129;28;20521;-66
2023/07/08 08:13:05;;;;;;;6.13;4.85;;;23.10;54.70;;;;;;5002432;28;20370;-66
2023/07/08 08:15:31;;;;;;;5.57;4.18;;;23.10;54.70;;;;;;4998407;28;20045;-66
2023/07/08 08:17:56;;;;;;;9.40;4.40;;;23.10;54.60;;;;;;4998411;28;20030;-66
2023/07/08 08:20:24;;;;;;;6.28;4.00;;;23.10;54.70;;;;;;4995443;28;20347;-66
2023/07/08 08:22:50;;;;;;;6.00;4.22;;;23.10;54.70;;;;;;4994297;28;20050;-64
2023/07/08 08:25:17;;;;;;;5.45;4.13;;;23.10;54.70;;;;;;5004332;28;20397;-66
2023/07/08 08:27:43;;;;;;;5.35;4.10;;;23.20;54.80;;;;;;4998019;28;20049;-66
2023/07/08 08:30:09;;;;;;;6.97;4.28;;;23.10;54.70;;;;;;4998933;28;20027;-66
2023/07/08 08:32:35;;;;;;;9.50;4.75;;;23.20;54.80;;;;;;4994867;28;20022;-66
2023/07/08 08:35:00;;;;;;;5.78;4.80;;;23.20;54.70;;;;;;4999993;28;20076;-66
2023/07/08 08:37:26;;;;;;;5.45;4.57;;;23.20;54.70;;;;;;5019061;28;20068;-65
2023/07/08 08:39:51;;;;;;;6.00;4.70;;;23.20;54.80;;;;;;4990380;28;20054;-64
2023/07/08 08:42:25;;;;;;;5.45;4.38;;;23.20;54.70;;;;;;5001797;28;20080;-66
2023/07/08 08:44:50;;;;;;;6.40;4.35;;;23.20;54.80;;;;;;4994828;28;20390;-67
2023/07/08 08:47:38;;;;;;;5.97;4.78;;;23.20;54.80;;;;;;5004787;28;20132;-66
2023/07/08 08:50:25;;;;;;;9.68;4.82;;;23.20;54.80;;;;;;4996448;28;20102;-66
2023/07/08 08:52:54;;;;;;;5.32;4.28;;;23.20;54.80;;;;;;4999268;28;20044;-66
2023/07/08 08:55:20;;;;;;;6.65;4.65;;;23.20;54.80;;;;;;5003731;28;20408;-66
2023/07/08 08:57:59;;;;;;;5.30;3.80;;;23.20;54.90;;;;;;5001758;28;20026;-66
2023/07/08 09:00:40;;;;;;;7.03;4.78;;;23.20;54.80;;;;;;5002170;28;20034;-66
2023/07/08 09:03:18;;;;;;;5.38;4.25;;;23.20;54.70;;;;;;5003074;28;20041;-66
2023/07/08 09:05:46;;;;;;;7.07;4.47;;;23.20;54.80;;;;;;5006647;28;20026;-66
2023/07/08 09:08:18;;;;;;;6.93;4.53;;;23.30;54.80;;;;;;4997168;28;20030;-66
2023/07/08 09:11:10;;;;;;;6.20;4.30;;;23.30;54.70;;;;;;4998810;28;20031;-66
2023/07/08 09:13:37;;;;;;;6.55;4.95;;;23.30;54.80;;;;;;4995958;28;20114;-66
2023/07/08 09:16:34;;;;;;;6.00;4.90;;;23.30;54.80;;;;;;4998214;28;20057;-66
2023/07/08 09:19:13;;;;;;;5.15;4.30;;;23.30;54.90;;;;;;5002849;28;20445;-66
2023/07/08 09:22:06;;;;;;;6.35;4.63;;;23.30;54.90;;;;;;5004899;28;20029;-65
2023/07/08 09:25:03;;;;;;;5.22;4.53;;;23.30;54.90;;;;;;4999458;28;20065;-65
2023/07/08 09:27:28;;;;;;;6.93;4.40;;;23.30;54.90;;;;;;5000250;28;20042;-65
2023/07/08 09:29:55;;;;;;;5.10;4.60;;;23.30;54.90;;;;;;5004891;28;20256;-65
2023/07/08 09:32:23;;;;;;;7.00;4.90;;;23.30;54.80;;;;;;5003219;28;20026;-67
2023/07/08 09:34:54;;;;;;;6.45;5.03;;;23.30;54.70;;;;;;4998760;28;20041;-67
2023/07/08 09:37:26;;;;;;;4.80;4.20;;;23.40;55.30;;;;;;4996238;28;20088;-66
2023/07/08 09:39:53;;;;;;;6.60;5.20;;;23.30;54.70;;;;;;5004463;28;20022;-66
2023/07/08 09:42:21;;;;;;;6.18;4.70;;;23.40;54.80;;;;;;5000182;28;20392;-67
2023/07/08 09:44:47;;;;;;;7.00;4.47;;;23.40;54.60;;;;;;4996346;28;20038;-66
2023/07/08 09:47:22;;;;;;;5.65;5.00;;;23.40;54.60;;;;;;5002171;28;20096;-66
2023/07/08 09:49:48;;;;;;;6.30;4.50;;;23.40;54.60;;;;;;5001736;28;20505;-66
2023/07/08 09:52:13;;;;;;;7.85;5.00;;;23.40;54.50;;;;;;5007000;28;20065;-66
2023/07/08 09:54:41;;;;;;;6.72;5.07;;;23.40;54.50;;;;;;5003030;28;20026;-66
2023/07/08 09:57:30;;;;;;;5.80;5.22;;;23.40;54.60;;;;;;4999469;28;20560;-66
2023/07/08 10:00:02;;;;;;;7.38;4.85;;;23.40;54.50;;;;;;5000349;28;20101;-66
2023/07/08 10:02:53;;;;;;;6.03;4.97;;;23.40;54.50;;;;;;4999973;28;20030;-65
2023/07/08 10:05:23;;;;;;;6.88;5.03;;;23.40;54.50;;;;;;4993067;28;20034;-66
2023/07/08 10:07:54;;;;;;;6.45;5.10;;;23.40;54.40;;;;;;5006740;28;20026;-66
2023/07/08 10:10:34;;;;;;;5.40;4.72;;;23.50;54.50;;;;;;4989118;28;20033;-67
2023/07/08 10:13:26;;;;;;;6.65;5.13;;;23.50;54.50;;;;;;4998137;28;20038;-66
2023/07/08 10:16:20;;;;;;;6.82;4.97;;;23.50;54.50;;;;;;4999654;28;20026;-66
2023/07/08 10:18:46;;;;;;;5.88;5.03;;;23.40;54.30;;;;;;4991399;28;20027;-67
2023/07/08 10:21:49;;;;;;;7.05;5.07;;;23.50;54.30;;;;;;4999978;28;20085;-66
2023/07/08 10:24:38;;;;;;;5.65;4.25;;;23.50;54.20;;;;;;4998164;28;20042;-66
2023/07/08 10:27:13;;;;;;;5.97;4.63;;;23.40;53.90;;;;;;5002296;28;20029;-67
2023/07/08 10:29:53;;;;;;;6.27;4.47;;;23.40;53.70;;;;;;5003061;28;20129;-66
2023/07/08 10:32:43;;;;;;;6.60;4.82;;;23.40;53.50;;;;;;5001277;28;20029;-66
2023/07/08 10:35:18;;;;;;;5.43;4.53;;;23.50;53.40;;;;;;4997586;28;20105;-65
2023/07/08 10:37:57;;;;;;;6.93;5.03;;;23.50;53.30;;;;;;4994911;28;20088;-67
2023/07/08 10:40:48;;;;;;;6.60;5.30;;;23.50;53.20;;;;;;5000545;28;20500;-67
2023/07/08 10:43:31;;;;;;;6.15;5.15;;;23.50;53.30;;;;;;5001825;28;20044;-67
2023/07/08 10:46:30;;;;;;;6.47;5.07;;;23.40;53.20;;;;;;4998714;28;20022;-67
2023/07/08 10:49:38;;;;;;;5.75;4.55;;;23.40;53.30;;;;;;4995518;28;20026;-68
2023/07/08 10:52:39;;;;;;;6.28;4.15;;;23.40;53.20;;;;;;4993576;28;20147;-67
2023/07/08 10:55:28;;;;;;;5.63;4.97;;;23.40;53.30;;;;;;4999679;28;20064;-66
2023/07/08 10:58:19;;;;;;;8.63;5.30;;;23.50;53.10;;;;;;4995703;28;20543;-67
2023/07/08 11:01:17;;;;;;;6.82;5.45;;;23.50;53.10;;;;;;5004559;28;20041;-66
2023/07/08 11:03:51;;;;;;;7.55;5.20;;;23.50;53.10;;;;;;4992535;28;20169;-66
2023/07/08 11:06:45;;;;;;;6.90;5.53;;;23.50;53.10;;;;;;4996280;28;20117;-67
2023/07/08 11:09:17;;;;;;;8.95;5.45;;;23.50;53.00;;;;;;5003123;28;20041;-67
2023/07/08 11:11:56;;;;;;;7.25;5.38;;;23.50;52.70;;;;;;5000263;28;20034;-67
2023/07/08 11:14:47;;;;;;;7.35;6.45;;;23.50;52.70;;;;;;4982034;28;20026;-67
2023/07/08 11:17:22;;;;;;;6.88;5.82;;;23.50;52.90;;;;;;4993732;28;20037;-66
2023/07/08 11:20:10;;;;;;;7.33;6.50;;;23.50;52.70;;;;;;4999507;28;20537;-66
2023/07/08 11:22:46;;;;;;;8.02;6.05;;;23.50;52.90;;;;;;4999052;28;20038;-66
2023/07/08 11:25:24;;;;;;;7.40;5.82;;;23.60;53.50;;;;;;5003022;28;20022;-65
2023/07/08 11:27:53;;;;;;;7.28;5.57;;;23.60;52.90;;;;;;4997265;28;20659;-66
2023/07/08 11:30:24;;;;;;;6.55;5.15;;;23.60;52.70;;;;;;5001978;28;20030;-67
2023/07/08 11:33:04;;;;;;;8.25;6.07;;;23.60;52.70;;;;;;4993943;28;20057;-66
2023/07/08 11:35:56;;;;;;;6.32;4.90;;;23.60;52.60;;;;;;4991365;28;20049;-67
2023/07/08 11:38:22;;;;;;;5.88;4.97;;;23.60;52.70;;;;;;4999210;28;20589;-66
2023/07/08 11:41:14;;;;;;;6.40;5.22;;;23.60;52.80;;;;;;4996233;28;20121;-66
2023/07/08 11:43:49;;;;;;;6.80;5.55;;;23.60;52.90;;;;;;5000258;28;20464;-66
2023/07/08 11:46:20;;;;;;;5.60;5.07;;;23.60;52.80;;;;;;4999371;28;20048;-66
2023/07/08 11:48:51;;;;;;;5.95;5.30;;;23.60;52.80;;;;;;4998215;28;20345;-67
2023/07/08 11:51:30;;;;;;;7.57;4.93;;;23.60;52.90;;;;;;4996544;28;20034;-64
2023/07/08 11:54:20;;;;;;;6.78;5.32;;;23.60;52.80;;;;;;4986701;28;20563;-67
2023/07/08 11:56:59;;;;;;;5.30;4.50;;;23.60;52.80;;;;;;4994226;28;20172;-66
2023/07/08 11:59:29;;;;;;;6.40;4.88;;;23.60;52.70;;;;;;4991661;28;20401;-66
2023/07/08 12:02:18;;;;;;;6.40;5.07;;;23.60;52.70;;;;;;4994128;28;20096;-66
2023/07/08 12:05:22;;;;;;;7.63;5.00;;;23.60;52.60;;;;;;4991697;28;20057;-66
2023/07/08 12:07:48;;;;;;;7.80;5.28;;;23.60;52.50;;;;;;4989850;28;20045;-66
2023/07/08 12:10:17;;;;;;;5.90;5.30;;;23.70;52.40;;;;;;4996657;28;20026;-66
2023/07/08 12:12:46;;;;;;;5.38;4.47;;;23.70;52.20;;;;;;4988895;28;20038;-66
2023/07/08 12:15:24;;;;;;;7.18;5.75;;;23.70;52.20;;;;;;4968023;28;20519;-65
2023/07/08 12:17:56;;;;;;;8.02;5.35;;;23.70;52.10;;;;;;5000322;28;20168;-66
2023/07/08 12:20:27;;;;;;;8.77;5.43;;;23.70;51.70;;;;;;4993509;28;20045;-66
2023/07/08 12:22:52;;;;;;;9.55;5.25;;;23.70;51.80;;;;;;4993871;28;20096;-66
2023/07/08 12:25:21;;;;;;;6.82;5.07;;;23.80;51.50;;;;;;5002271;28;20026;-67
2023/07/08 12:27:47;;;;;;;5.25;4.28;;;23.80;51.60;;;;;;5003854;28;20038;-66
2023/07/08 12:30:15;;;;;;;6.70;5.15;;;23.80;51.50;;;;;;5001864;28;20041;-66
2023/07/08 12:32:41;;;;;;;5.13;4.53;;;23.70;51.60;;;;;;4991863;28;20137;-66
2023/07/08 12:35:23;;;;;;;5.65;4.70;;;23.70;51.70;;;;;;4999714;28;20034;-66
2023/07/08 12:37:51;;;;;;;7.65;4.53;;;23.80;51.70;;;;;;5002716;28;20026;-67
2023/07/08 12:40:17;;;;;;;6.75;4.85;;;23.80;51.60;;;;;;4997774;28;20069;-67
2023/07/08 12:42:44;;;;;;;5.28;4.63;;;23.70;51.70;;;;;;5000446;28;20061;-66
2023/07/08 12:45:19;;;;;;;5.65;4.30;;;23.80;51.60;;;;;;4991579;28;20026;-67
2023/07/08 12:47:45;;;;;;;6.70;5.00;;;23.80;51.50;;;;;;5004587;28;20492;-66
2023/07/08 12:50:12;;;;;;;6.45;4.60;;;23.80;51.70;;;;;;4999894;28;20038;-67
2023/07/08 12:52:38;;;;;;;6.45;4.70;;;23.80;51.70;;;;;;4993313;28;20453;-67
2023/07/08 12:55:05;;;;;;;5.57;4.40;;;23.80;51.30;;;;;;4996011;28;20026;-66
2023/07/08 12:57:30;;;;;;;7.20;4.55;;;23.80;51.20;;;;;;5001373;28;20104;-66
2023/07/08 12:59:58;;;;;;;9.45;5.40;;;23.90;50.40;;;;;;4991732;28;20022;-67
2023/07/08 13:02:27;;;;;;;5.57;4.20;;;23.80;50.90;;;;;;4999491;28;20030;-66